Time;durP1;ratioP1;P1;durP2;ratioP2;P2;SDS_P1;SDS_P2;PMS_P1;PMS_P2;Temp;Humidity;BMP_temperature;BMP_pressure;BME280_temperature;BME280_humidity;BME280_pressure;Samples;Min_cycle;Max_cycle;Signal;HPM_P1;HPM_P2
2023/06/22 00:01:02;;;;;;;;;;;26.10;47.80;;;;;;6225086;22;19957;-86
2023/06/22 00:03:28;;;;;;;;;;;26.10;48.50;;;;;;6250581;22;20355;-85
2023/06/22 00:05:54;;;;;;;;;;;26.10;48.50;;;;;;6250190;22;19990;-86
2023/06/22 00:08:20;;;;;;;;;;;26.10;49.30;;;;;;6250376;22;19915;-83
2023/06/22 00:10:46;;;;;;;;;;;26.00;48.60;;;;;;6224642;22;19911;-80
2023/06/22 00:13:13;;;;;;;;;;;26.00;48.60;;;;;;6277326;22;19938;-86
2023/06/22 00:15:40;;;;;;;;;;;26.00;48.60;;;;;;6249730;22;19915;-86
2023/06/22 00:18:07;;;;;;;;;;;25.90;48.30;;;;;;6250420;22;19947;-86
2023/06/22 00:20:37;;;;;;;;;;;26.00;48.70;;;;;;6250200;22;19911;-85
2023/06/22 00:25:49;;;;;;;;;;;25.90;48.50;;;;;;6254084;22;19921;-86
2023/06/22 00:28:15;;;;;;;;;;;25.80;48.70;;;;;;6277290;22;19915;-83
2023/06/22 00:30:41;;;;;;;;;;;25.80;48.80;;;;;;6249723;22;19942;-85
2023/06/22 00:33:07;;;;;;;;;;;25.80;48.90;;;;;;6250430;22;19918;-87
2023/06/22 00:35:33;;;;;;;;;;;25.80;48.90;;;;;;6250244;22;19990;-79
2023/06/22 00:38:00;;;;;;;;;;;25.80;48.90;;;;;;6278079;22;19990;-79
2023/06/22 00:40:28;;;;;;;;;;;25.80;49.10;;;;;;6252178;22;19947;-85
2023/06/22 00:42:54;;;;;;;;;;;25.80;49.10;;;;;;6252196;22;19934;-80
2023/06/22 00:45:22;;;;;;;;;;;25.70;49.20;;;;;;6252189;22;19915;-85
2023/06/22 00:47:50;;;;;;;;;;;25.70;49.00;;;;;;6227061;22;20280;-80
2023/06/22 00:50:20;;;;;;;;;;;25.70;49.50;;;;;;6252039;22;19917;-80
2023/06/22 00:53:11;;;;;;;;;;;25.60;49.50;;;;;;6252322;22;19982;-79
2023/06/22 00:55:38;;;;;;;;;;;25.60;49.80;;;;;;6252558;22;19911;-87
2023/06/22 00:58:09;;;;;;;;;;;25.60;49.90;;;;;;6251971;22;20278;-78
2023/06/22 01:00:36;;;;;;;;;;;25.60;50.00;;;;;;6252404;22;19911;-79
2023/06/22 01:03:03;;;;;;;;;;;25.50;50.00;;;;;;6252043;22;19911;-80
2023/06/22 01:05:30;;;;;;;;;;;25.50;50.20;;;;;;6251657;22;19926;-80
2023/06/22 01:08:14;;;;;;;;;;;25.50;50.30;;;;;;6252428;22;19961;-80
2023/06/22 01:11:17;;;;;;;;;;;25.40;50.40;;;;;;6251646;22;19918;-80
2023/06/22 01:14:18;;;;;;;;;;;25.40;50.40;;;;;;6251788;22;19918;-87
2023/06/22 01:16:44;;;;;;;;;;;25.40;50.80;;;;;;6278816;22;19915;-87
2023/06/22 01:19:22;;;;;;;;;;;25.30;51.10;;;;;;6252015;22;19907;-87
2023/06/22 01:21:49;;;;;;;;;;;25.30;51.50;;;;;;6278335;22;19912;-87
2023/06/22 01:24:22;;;;;;;;;;;25.30;51.80;;;;;;6251732;22;19911;-87
2023/06/22 01:27:06;;;;;;;;;;;25.20;52.00;;;;;;6226464;22;19918;-88
2023/06/22 01:29:33;;;;;;;;;;;25.20;52.30;;;;;;6252199;22;19918;-79
2023/06/22 01:31:59;;;;;;;;;;;25.20;52.40;;;;;;6225841;22;19986;-79
2023/06/22 01:34:30;;;;;;;;;;;25.10;52.40;;;;;;6251993;22;19964;-84
2023/06/22 01:36:57;;;;;;;;;;;25.10;52.50;;;;;;6278351;22;19923;-80
2023/06/22 01:39:23;;;;;;;;;;;25.10;52.70;;;;;;6251632;22;19917;-88
2023/06/22 01:41:49;;;;;;;;;;;25.10;52.90;;;;;;6251527;22;20232;-87
2023/06/22 01:44:16;;;;;;;;;;;25.10;53.00;;;;;;6252045;22;19907;-85
2023/06/22 01:46:42;;;;;;;;;;;25.10;53.00;;;;;;6226230;22;19915;-80
2023/06/22 01:49:08;;;;;;;;;;;25.00;53.30;;;;;;6251222;22;19913;-80
2023/06/22 01:51:34;;;;;;;;;;;25.00;53.40;;;;;;6278542;22;19911;-79
2023/06/22 01:54:03;;;;;;;;;;;25.00;53.80;;;;;;6251734;22;19918;-87
2023/06/22 01:56:29;;;;;;;;;;;24.90;54.30;;;;;;6250813;22;19915;-86
2023/06/22 01:59:19;;;;;;;;;;;24.80;54.80;;;;;;6226216;22;20297;-86
2023/06/22 02:01:54;;;;;;;;;;;24.70;54.90;;;;;;6251295;22;19994;-80
2023/06/22 02:04:24;;;;;;;;;;;24.70;55.00;;;;;;6251203;22;19950;-81
2023/06/22 02:06:54;;;;;;;;;;;24.60;55.10;;;;;;6250954;22;19915;-88
2023/06/22 02:09:21;;;;;;;;;;;24.60;55.50;;;;;;6226292;22;20370;-87
2023/06/22 02:11:48;;;;;;;;;;;24.50;55.70;;;;;;6277929;22;19915;-88
2023/06/22 02:14:15;;;;;;;;;;;24.50;55.80;;;;;;6251772;22;20237;-80
2023/06/22 02:16:41;;;;;;;;;;;24.40;55.60;;;;;;6250991;22;19919;-80
2023/06/22 02:19:07;;;;;;;;;;;24.40;55.50;;;;;;6225808;22;19907;-80
2023/06/22 02:21:34;;;;;;;;;;;24.30;56.50;;;;;;6225605;22;19915;-81
2023/06/22 02:24:00;;;;;;;;;;;24.30;56.40;;;;;;6251153;22;19982;-80
2023/06/22 02:26:26;;;;;;;;;;;24.20;56.40;;;;;;6251079;22;19937;-80
2023/06/22 02:28:53;;;;;;;;;;;24.20;56.10;;;;;;6225873;22;19907;-88
2023/06/22 02:31:20;;;;;;;;;;;24.10;57.00;;;;;;6251380;22;20026;-88
2023/06/22 02:33:46;;;;;;;;;;;23.90;57.60;;;;;;6251666;22;19938;-87
2023/06/22 02:36:12;;;;;;;;;;;23.90;57.10;;;;;;6225810;22;19960;-80
2023/06/22 02:38:48;;;;;;;;;;;23.80;58.00;;;;;;6226025;22;20353;-86
2023/06/22 02:41:32;;;;;;;;;;;23.70;57.90;;;;;;6252417;22;20228;-80
2023/06/22 02:43:58;;;;;;;;;;;23.60;58.20;;;;;;6251172;22;20524;-79
2023/06/22 02:46:24;;;;;;;;;;;23.60;58.30;;;;;;6250447;22;19911;-79
2023/06/22 02:48:50;;;;;;;;;;;23.60;58.60;;;;;;6251398;22;20317;-79
2023/06/22 02:51:16;;;;;;;;;;;23.60;58.40;;;;;;6250845;22;20006;-86
2023/06/22 02:53:45;;;;;;;;;;;23.60;58.30;;;;;;6250838;22;19939;-80
2023/06/22 02:56:12;;;;;;;;;;;23.50;58.50;;;;;;6226063;22;19911;-87
2023/06/22 02:58:51;;;;;;;;;;;23.60;58.50;;;;;;6251434;22;19918;-80
2023/06/22 03:01:33;;;;;;;;;;;;;;;;;;;;;
2023/06/22 03:04:02;;;;;;;;;;;23.60;58.20;;;;;;6246931;22;19981;-88
2023/06/22 03:06:28;;;;;;;;;;;23.70;58.40;;;;;;6250730;22;19918;-84
2023/06/22 03:09:00;;;;;;;;;;;23.70;58.40;;;;;;6225286;22;19913;-79
2023/06/22 03:11:26;;;;;;;;;;;23.70;58.30;;;;;;6250295;22;19965;-85
2023/06/22 03:13:52;;;;;;;;;;;23.60;57.70;;;;;;6250934;22;19953;-86
2023/06/22 03:16:19;;;;;;;;;;;23.60;58.20;;;;;;6225471;22;19911;-87
2023/06/22 03:18:45;;;;;;;;;;;23.60;58.10;;;;;;6250501;22;19917;-79
2023/06/22 03:21:11;;;;;;;;;;;23.60;57.70;;;;;;6250301;22;19915;-79
2023/06/22 03:23:37;;;;;;;;;;;23.70;58.40;;;;;;6277809;22;19911;-79
2023/06/22 03:26:04;;;;;;;;;;;23.70;58.30;;;;;;6250015;22;19911;-79
2023/06/22 03:28:30;;;;;;;;;;;23.70;58.10;;;;;;6277516;22;19939;-78
2023/06/22 03:31:15;;;;;;;;;;;23.70;58.00;;;;;;6277588;22;20293;-86
2023/06/22 03:33:41;;;;;;;;;;;23.70;58.10;;;;;;6250688;22;19911;-85
2023/06/22 03:36:07;;;;;;;;;;;23.80;58.30;;;;;;6250526;22;19907;-86
2023/06/22 03:38:33;;;;;;;;;;;23.80;58.50;;;;;;6250495;22;19922;-86
2023/06/22 03:40:59;;;;;;;;;;;23.70;58.60;;;;;;6277577;22;20391;-79
2023/06/22 03:43:24;;;;;;;;;;;23.80;58.60;;;;;;6250396;22;19919;-87
2023/06/22 03:45:50;;;;;;;;;;;23.80;58.60;;;;;;6224659;22;20321;-81
2023/06/22 03:48:16;;;;;;;;;;;23.80;58.70;;;;;;6250274;22;19922;-79
2023/06/22 03:50:43;;;;;;;;;;;23.90;58.50;;;;;;6249940;22;19913;-79
2023/06/22 03:53:10;;;;;;;;;;;23.90;58.70;;;;;;6250828;22;19915;-80
2023/06/22 03:55:36;;;;;;;;;;;23.90;59.00;;;;;;6276843;22;19911;-85
2023/06/22 03:58:05;;;;;;;;;;;23.90;58.60;;;;;;6277320;22;19934;-78
2023/06/22 04:00:32;;;;;;;;;;;24.00;59.10;;;;;;6249958;22;19911;-79
2023/06/22 04:03:37;;;;;;;;;;;24.00;58.80;;;;;;6225084;22;19911;-79
2023/06/22 04:06:03;;;;;;;;;;;24.00;58.70;;;;;;6099477;23;19975;-86
2023/06/22 04:08:29;;;;;;;;;;;24.00;59.20;;;;;;6124642;23;19921;-87
2023/06/22 04:10:55;;;;;;;;;;;24.10;59.40;;;;;;6123714;23;19913;-87
2023/06/22 04:13:21;;;;;;;;;;;24.00;59.60;;;;;;6124367;23;19928;-87
2023/06/22 04:15:47;;;;;;;;;;;24.10;59.60;;;;;;6123826;23;19948;-79
2023/06/22 04:18:13;;;;;;;;;;;24.20;59.10;;;;;;6124047;23;19919;-78
2023/06/22 04:20:39;;;;;;;;;;;24.30;59.20;;;;;;6099419;23;19916;-79
2023/06/22 04:23:05;;;;;;;;;;;24.30;58.70;;;;;;6124367;23;19913;-84
2023/06/22 04:25:31;;;;;;;;;;;24.30;59.00;;;;;;6123886;23;20008;-87
2023/06/22 04:28:04;;;;;;;;;;;24.40;59.40;;;;;;6124229;23;19951;-87
2023/06/22 04:30:31;;;;;;;;;;;24.40;58.40;;;;;;6099382;23;19917;-79
2023/06/22 04:32:57;;;;;;;;;;;24.50;58.70;;;;;;6123996;23;19913;-87
2023/06/22 04:35:44;;;;;;;;;;;24.60;58.60;;;;;;6123755;23;20393;-88
2023/06/22 04:38:13;;;;;;;;;;;24.60;58.50;;;;;;6250204;22;19915;-87
2023/06/22 04:40:39;;;;;;;;;;;24.60;58.90;;;;;;6250003;22;19962;-86
2023/06/22 04:43:06;;;;;;;;;;;24.60;58.80;;;;;;6249958;22;19911;-82
2023/06/22 04:45:52;;;;;;;;;;;24.70;59.20;;;;;;6250018;22;19911;-86
2023/06/22 04:48:18;;;;;;;;;;;24.70;59.10;;;;;;6276895;22;20279;-86
2023/06/22 04:50:44;;;;;;;;;;;24.70;59.00;;;;;;6277025;22;19917;-79
2023/06/22 04:53:12;;;;;;;;;;;24.80;58.60;;;;;;6224739;22;19915;-79
2023/06/22 04:55:41;;;;;;;;;;;24.90;58.60;;;;;;6250175;22;19911;-79
2023/06/22 04:58:07;;;;;;;;;;;24.90;58.10;;;;;;6250646;22;19942;-87
2023/06/22 05:00:36;;;;;;;;;;;25.00;58.30;;;;;;6224127;22;19911;-80
2023/06/22 05:03:03;;;;;;;;;;;25.00;58.30;;;;;;6225049;22;19912;-79
2023/06/22 05:05:29;;;;;;;;;;;25.00;57.70;;;;;;6249866;22;20313;-85
2023/06/22 05:07:59;;;;;;;;;;;25.10;58.10;;;;;;6249972;22;19911;-79
2023/06/22 05:10:33;;;;;;;;;;;25.10;58.10;;;;;;6249866;22;19957;-87
2023/06/22 05:12:59;;;;;;;;;;;25.10;58.00;;;;;;6251995;22;19911;-87
2023/06/22 05:15:27;;;;;;;;;;;25.20;58.70;;;;;;6249489;22;19998;-87
2023/06/22 05:17:53;;;;;;;;;;;25.20;57.70;;;;;;6225063;22;19911;-79
2023/06/22 05:20:19;;;;;;;;;;;25.30;57.70;;;;;;6276776;22;19950;-82
2023/06/22 05:22:45;;;;;;;;;;;25.30;57.70;;;;;;6277468;22;19998;-86
2023/06/22 05:25:12;;;;;;;;;;;25.30;57.80;;;;;;6226040;22;20290;-79
2023/06/22 05:27:39;;;;;;;;;;;25.30;57.90;;;;;;6251965;22;19911;-87
2023/06/22 05:30:25;;;;;;;;;;;25.30;57.40;;;;;;6226548;22;19957;-79
2023/06/22 05:32:52;;;;;;;;;;;25.30;57.80;;;;;;6252094;22;19912;-86
2023/06/22 05:35:18;;;;;;;;;;;25.40;57.90;;;;;;6251818;22;19942;-80
2023/06/22 05:37:44;;;;;;;;;;;25.40;57.70;;;;;;6251896;22;19993;-88
2023/06/22 05:40:11;;;;;;;;;;;25.40;57.80;;;;;;6251174;22;19990;-79
2023/06/22 05:42:36;;;;;;;;;;;25.40;57.50;;;;;;6251823;22;19978;-79
2023/06/22 05:45:03;;;;;;;;;;;25.50;57.80;;;;;;6251410;22;20372;-80
2023/06/22 05:47:29;;;;;;;;;;;25.50;57.30;;;;;;6251142;22;19917;-88
2023/06/22 05:49:54;;;;;;;;;;;25.60;57.60;;;;;;6252066;22;19939;-86
2023/06/22 05:52:20;;;;;;;;;;;25.70;57.50;;;;;;6251542;22;19911;-82
2023/06/22 05:54:46;;;;;;;;;;;25.80;57.30;;;;;;6226164;22;19934;-85
2023/06/22 05:57:12;;;;;;;;;;;25.80;57.00;;;;;;6251243;22;19939;-79
2023/06/22 05:59:38;;;;;;;;;;;25.80;56.60;;;;;;6251532;22;20328;-86
2023/06/22 06:02:04;;;;;;;;;;;25.80;56.50;;;;;;6251330;22;20297;-87
2023/06/22 06:04:30;;;;;;;;;;;25.90;55.90;;;;;;6251553;22;20375;-80
2023/06/22 06:06:57;;;;;;;;;;;26.00;56.90;;;;;;6251338;22;19990;-86
2023/06/22 06:09:23;;;;;;;;;;;26.10;56.80;;;;;;6251552;22;20268;-83
2023/06/22 06:11:48;;;;;;;;;;;26.10;56.50;;;;;;6250897;22;19954;-86
2023/06/22 06:14:16;;;;;;;;;;;26.20;55.90;;;;;;6251444;22;19955;-85
2023/06/22 06:16:42;;;;;;;;;;;26.30;55.40;;;;;;6251355;22;19911;-79
2023/06/22 06:19:08;;;;;;;;;;;26.40;55.00;;;;;;6225834;22;19918;-84
2023/06/22 06:21:37;;;;;;;;;;;26.50;54.90;;;;;;6225397;22;19917;-86
2023/06/22 06:24:03;;;;;;;;;;;26.40;55.00;;;;;;6226090;22;19957;-79
2023/06/22 06:26:32;;;;;;;;;;;26.50;54.20;;;;;;6250795;22;19911;-86
2023/06/22 06:29:00;;;;;;;;;;;26.70;54.20;;;;;;6251808;22;19922;-85
2023/06/22 06:34:11;;;;;;;;;;;26.80;53.40;;;;;;6278360;22;19938;-85
2023/06/22 06:36:37;;;;;;;;;;;26.80;53.80;;;;;;6250333;22;19942;-79
2023/06/22 06:39:03;;;;;;;;;;;26.90;53.50;;;;;;6251055;22;19957;-80
2023/06/22 06:41:29;;;;;;;;;;;26.90;53.20;;;;;;6277448;22;19911;-85
2023/06/22 06:43:55;;;;;;;;;;;27.00;53.40;;;;;;6225852;22;19911;-81
2023/06/22 06:46:21;;;;;;;;;;;27.10;53.30;;;;;;6250636;22;19994;-80
2023/06/22 06:48:47;;;;;;;;;;;27.20;53.00;;;;;;6251290;22;19918;-81
2023/06/22 06:51:13;;;;;;;;;;;27.30;52.80;;;;;;6250576;22;19907;-91
2023/06/22 06:53:39;;;;;;;;;;;27.30;52.80;;;;;;6251094;22;20276;-80
2023/06/22 06:56:05;;;;;;;;;;;27.50;52.30;;;;;;6250410;22;20006;-87
2023/06/22 06:58:31;;;;;;;;;;;27.60;52.20;;;;;;6250697;22;19965;-83
2023/06/22 07:00:57;;;;;;;;;;;27.60;51.50;;;;;;6250730;22;19911;-81
2023/06/22 07:03:23;;;;;;;;;;;27.70;51.70;;;;;;6225528;22;19945;-86
2023/06/22 07:05:49;;;;;;;;;;;27.80;51.50;;;;;;6225243;22;20006;-86
2023/06/22 07:08:15;;;;;;;;;;;27.90;50.80;;;;;;6225866;22;19926;-85
2023/06/22 07:10:41;;;;;;;;;;;28.10;51.70;;;;;;6250694;22;19911;-83
2023/06/22 07:13:06;;;;;;;;;;;28.20;51.40;;;;;;6278257;22;19911;-88
2023/06/22 07:15:32;;;;;;;;;;;28.30;50.90;;;;;;6250318;22;20030;-81
2023/06/22 07:17:58;;;;;;;;;;;28.50;51.10;;;;;;6225567;22;19918;-87
2023/06/22 07:20:24;;;;;;;;;;;28.70;50.90;;;;;;6250200;22;19919;-87
2023/06/22 07:22:52;;;;;;;;;;;28.80;50.50;;;;;;6225492;22;19942;-87
2023/06/22 07:25:18;;;;;;;;;;;28.90;50.10;;;;;;6224872;22;19915;-82
2023/06/22 07:28:03;;;;;;;;;;;28.90;49.80;;;;;;6251061;22;19921;-81
2023/06/22 07:30:30;;;;;;;;;;;29.00;50.20;;;;;;6250122;22;19943;-81
2023/06/22 07:32:56;;;;;;;;;;;29.10;49.70;;;;;;6225560;22;19970;-81
2023/06/22 07:35:22;;;;;;;;;;;29.30;49.40;;;;;;6276982;22;19919;-87
2023/06/22 07:37:48;;;;;;;;;;;29.50;49.10;;;;;;6250593;22;20361;-89
2023/06/22 07:40:14;;;;;;;;;;;29.50;48.70;;;;;;6249890;22;19915;-89
2023/06/22 07:42:40;;;;;;;;;;;29.70;48.10;;;;;;6251189;22;19918;-82
2023/06/22 07:45:08;;;;;;;;;;;29.80;47.60;;;;;;6225110;22;19915;-87
2023/06/22 07:47:35;;;;;;;;;;;29.90;47.40;;;;;;6224928;22;19918;-88
2023/06/22 07:50:01;;;;;;;;;;;30.10;47.50;;;;;;6250537;22;19945;-89
2023/06/22 07:52:28;;;;;;;;;;;30.30;46.40;;;;;;6250083;22;19911;-88
2023/06/22 07:54:54;;;;;;;;;;;30.40;45.90;;;;;;6250949;22;20002;-88
2023/06/22 07:57:21;;;;;;;;;;;30.40;44.10;;;;;;6225087;22;19990;-87
2023/06/22 07:59:46;;;;;;;;;;;30.60;44.60;;;;;;6250332;22;19918;-84
2023/06/22 08:02:12;;;;;;;;;;;30.80;44.60;;;;;;6277287;22;19981;-88
2023/06/22 08:04:39;;;;;;;;;;;30.90;44.10;;;;;;6225025;22;19911;-84
2023/06/22 08:07:05;;;;;;;;;;;30.90;43.00;;;;;;6224318;22;20313;-82
2023/06/22 08:09:32;;;;;;;;;;;31.10;43.90;;;;;;6250629;22;19911;-88
2023/06/22 08:11:59;;;;;;;;;;;31.20;43.50;;;;;;6249552;22;19911;-88
2023/06/22 08:14:25;;;;;;;;;;;31.30;42.80;;;;;;6250268;22;19998;-88
2023/06/22 08:16:51;;;;;;;;;;;31.40;42.50;;;;;;6249890;22;19981;-89
2023/06/22 08:19:17;;;;;;;;;;;31.50;42.20;;;;;;6277508;22;19942;-87
2023/06/22 08:21:43;;;;;;;;;;;31.60;42.10;;;;;;6250249;22;19947;-83
2023/06/22 08:24:09;;;;;;;;;;;31.60;37.80;;;;;;6250406;22;20382;-86
2023/06/22 08:26:37;;;;;;;;;;;31.70;38.40;;;;;;6275431;22;19990;-84
2023/06/22 08:29:04;;;;;;;;;;;31.90;39.60;;;;;;6250257;22;19911;-89
2023/06/22 08:31:31;;;;;;;;;;;32.10;39.90;;;;;;6224742;22;19911;-89
2023/06/22 08:33:57;;;;;;;;;;;32.20;39.40;;;;;;6225137;22;20037;-89
2023/06/22 08:36:23;;;;;;;;;;;32.30;39.50;;;;;;6250134;22;20324;-87
2023/06/22 08:38:51;;;;;;;;;;;32.40;39.20;;;;;;6225025;22;19923;-89
2023/06/22 08:41:17;;;;;;;;;;;32.30;37.90;;;;;;6225073;22;19911;-88
2023/06/22 08:43:44;;;;;;;;;;;32.20;38.80;;;;;;6225326;22;19918;-88
2023/06/22 08:46:11;;;;;;;;;;;32.40;39.00;;;;;;6250187;22;20339;-85
2023/06/22 08:48:36;;;;;;;;;;;32.60;38.80;;;;;;6225411;22;19917;-87
2023/06/22 08:51:03;;;;;;;;;;;32.60;38.60;;;;;;6224860;22;19911;-83
2023/06/22 08:53:29;;;;;;;;;;;32.70;38.90;;;;;;6224648;22;20313;-85
2023/06/22 08:55:55;;;;;;;;;;;32.80;38.70;;;;;;6225062;22;19918;-85
2023/06/22 08:58:21;;;;;;;;;;;32.90;38.60;;;;;;6225366;22;20058;-85
2023/06/22 09:00:48;;;;;;;;;;;33.00;39.10;;;;;;6226965;22;19918;-82
2023/06/22 09:03:14;;;;;;;;;;;33.20;38.70;;;;;;6279251;22;19907;-83
2023/06/22 09:05:40;;;;;;;;;;;33.20;38.70;;;;;;6251597;22;20375;-87
2023/06/22 09:08:06;;;;;;;;;;;33.30;39.00;;;;;;6251202;22;19956;-85
2023/06/22 09:10:32;;;;;;;;;;;33.40;38.40;;;;;;6226661;22;19911;-88
2023/06/22 09:12:58;;;;;;;;;;;33.60;38.60;;;;;;6252558;22;20281;-91
2023/06/22 09:15:24;;;;;;;;;;;33.70;37.50;;;;;;6251871;22;19918;-88
2023/06/22 09:17:50;;;;;;;;;;;33.70;38.40;;;;;;6252112;22;19919;-87
2023/06/22 09:20:16;;;;;;;;;;;34.00;38.50;;;;;;6251326;22;19914;-82
2023/06/22 09:22:42;;;;;;;;;;;34.00;38.30;;;;;;6252178;22;19946;-87
2023/06/22 09:25:08;;;;;;;;;;;33.90;37.80;;;;;;6226461;22;19953;-87
2023/06/22 09:27:34;;;;;;;;;;;34.00;37.10;;;;;;6251835;22;19951;-83
2023/06/22 09:30:01;;;;;;;;;;;34.20;38.00;;;;;;6252139;22;19915;-85
2023/06/22 09:32:26;;;;;;;;;;;34.30;38.00;;;;;;6225571;22;19949;-88
2023/06/22 09:34:53;;;;;;;;;;;34.50;38.10;;;;;;6226861;22;19935;-87
2023/06/22 09:37:19;;;;;;;;;;;34.60;37.40;;;;;;6278336;22;19921;-88
2023/06/22 09:39:45;;;;;;;;;;;34.90;37.30;;;;;;6251971;22;19907;-87
2023/06/22 09:42:13;;;;;;;;;;;35.00;36.40;;;;;;6250738;22;19922;-85
2023/06/22 09:44:39;;;;;;;;;;;35.30;37.10;;;;;;6227240;22;19907;-92
2023/06/22 09:47:14;;;;;;;;;;;35.60;35.10;;;;;;6251104;22;19915;-89
2023/06/22 09:49:40;;;;;;;;;;;36.10;36.10;;;;;;6251639;22;19915;-85
2023/06/22 09:52:06;;;;;;;;;;;36.70;35.90;;;;;;6225849;22;20359;-85
2023/06/22 09:54:32;;;;;;;;;;;37.20;34.40;;;;;;6252325;22;20062;-89
2023/06/22 09:56:57;;;;;;;;;;;37.80;34.30;;;;;;6225847;22;20352;-88
2023/06/22 09:59:30;;;;;;;;;;;38.40;33.20;;;;;;6251753;22;19911;-81
2023/06/22 10:01:55;;;;;;;;;;;38.70;31.00;;;;;;6225545;22;19990;-85
2023/06/22 10:04:21;;;;;;;;;;;38.80;31.10;;;;;;6226385;22;19918;-87
2023/06/22 10:06:47;;;;;;;;;;;39.10;31.30;;;;;;6251237;22;19918;-84
2023/06/22 10:09:13;;;;;;;;;;;39.40;30.40;;;;;;6251778;22;19990;-86
2023/06/22 10:11:39;;;;;;;;;;;39.70;30.00;;;;;;6225591;22;20245;-84
2023/06/22 10:14:05;;;;;;;;;;;40.40;29.70;;;;;;6251510;22;19922;-81
2023/06/22 10:16:31;;;;;;;;;;;40.50;28.90;;;;;;6225196;22;20364;-83
2023/06/22 10:18:57;;;;;;;;;;;40.50;28.70;;;;;;6225508;22;19954;-79
2023/06/22 10:21:23;;;;;;;;;;;40.80;28.30;;;;;;6277482;22;19912;-79
2023/06/22 10:23:49;;;;;;;;;;;41.10;28.50;;;;;;6277861;22;20041;-80
2023/06/22 10:26:15;;;;;;;;;;;41.30;28.00;;;;;;6250242;22;19957;-80
2023/06/22 10:28:41;;;;;;;;;;;41.70;27.40;;;;;;6249577;22;19941;-82
2023/06/22 10:31:07;;;;;;;;;;;42.20;26.80;;;;;;6224797;22;19911;-80
2023/06/22 10:33:33;;;;;;;;;;;42.60;26.20;;;;;;6250724;22;19937;-82
2023/06/22 10:35:58;;;;;;;;;;;43.20;26.00;;;;;;6249971;22;20324;-82
2023/06/22 10:38:24;;;;;;;;;;;43.50;25.60;;;;;;6250667;22;19949;-84
2023/06/22 10:40:50;;;;;;;;;;;44.00;25.70;;;;;;6250103;22;19954;-81
2023/06/22 10:43:16;;;;;;;;;;;44.50;24.60;;;;;;6225204;22;19907;-82
2023/06/22 10:45:42;;;;;;;;;;;45.00;24.80;;;;;;6250600;22;19911;-82
2023/06/22 10:48:08;;;;;;;;;;;45.20;23.70;;;;;;6250200;22;19912;-81
2023/06/22 10:50:34;;;;;;;;;;;45.50;23.70;;;;;;6249847;22;19921;-81
2023/06/22 10:53:00;;;;;;;;;;;46.00;23.50;;;;;;6250886;22;19990;-82
2023/06/22 10:55:26;;;;;;;;;;;46.50;23.10;;;;;;6224734;22;19944;-80
2023/06/22 10:58:13;;;;;;;;;;;46.90;21.80;;;;;;6250541;22;20259;-84
2023/06/22 11:00:39;;;;;;;;;;;47.20;22.10;;;;;;6249981;22;19911;-84
2023/06/22 11:03:15;;;;;;;;;;;47.40;21.70;;;;;;6250495;22;19918;-81
2023/06/22 11:05:41;;;;;;;;;;;47.60;20.20;;;;;;6224691;22;19929;-82
2023/06/22 11:08:07;;;;;;;;;;;48.00;20.90;;;;;;6225337;22;20027;-82
2023/06/22 11:10:33;;;;;;;;;;;48.60;20.50;;;;;;6276932;22;19911;-81
2023/06/22 11:12:59;;;;;;;;;;;48.70;19.40;;;;;;6250225;22;19950;-81
2023/06/22 11:15:25;;;;;;;;;;;48.90;19.70;;;;;;6224417;22;19925;-82
2023/06/22 11:17:51;;;;;;;;;;;49.10;19.60;;;;;;6250117;22;19911;-82
2023/06/22 11:20:17;;;;;;;;;;;49.20;19.60;;;;;;6276736;22;19954;-81
2023/06/22 11:22:43;;;;;;;;;;;49.10;19.60;;;;;;6277346;22;20271;-81
2023/06/22 11:25:09;;;;;;;;;;;49.30;19.60;;;;;;6249786;22;19989;-81
2023/06/22 11:27:35;;;;;;;;;;;49.80;18.80;;;;;;6249885;22;19907;-80
2023/06/22 11:30:16;;;;;;;;;;;50.00;18.70;;;;;;6224497;22;19915;-80
2023/06/22 11:32:42;;;;;;;;;;;50.30;18.00;;;;;;6248963;22;19911;-83
2023/06/22 11:35:08;;;;;;;;;;;50.30;18.10;;;;;;6249396;22;20020;-80
2023/06/22 11:37:34;;;;;;;;;;;50.60;18.10;;;;;;6249458;22;20340;-81
2023/06/22 11:40:00;;;;;;;;;;;50.70;18.20;;;;;;6249574;22;19919;-82
2023/06/22 11:42:26;;;;;;;;;;;50.80;17.80;;;;;;6249235;22;19913;-81
2023/06/22 11:44:52;;;;;;;;;;;50.60;18.00;;;;;;6277318;22;19919;-81
2023/06/22 11:47:18;;;;;;;;;;;50.60;18.00;;;;;;6276117;22;19911;-82
2023/06/22 11:49:43;;;;;;;;;;;50.60;17.40;;;;;;6276958;22;19990;-80
2023/06/22 11:52:10;;;;;;;;;;;50.80;17.70;;;;;;6223819;22;19917;-81
2023/06/22 11:54:35;;;;;;;;;;;50.80;17.50;;;;;;6250004;22;19961;-81
2023/06/22 11:57:01;;;;;;;;;;;51.20;17.70;;;;;;6275344;22;20277;-83
2023/06/22 11:59:27;;;;;;;;;;;51.40;17.70;;;;;;6274932;22;19915;-81
2023/06/22 12:01:53;;;;;;;;;;;51.40;17.90;;;;;;6249175;22;20222;-82
2023/06/22 12:04:20;;;;;;;;;;;51.20;17.70;;;;;;6277468;22;19907;-81
2023/06/22 12:06:45;;;;;;;;;;;51.20;17.30;;;;;;6276517;22;19915;-81
2023/06/22 12:09:13;;;;;;;;;;;51.20;17.80;;;;;;6250177;22;20002;-81
2023/06/22 12:11:39;;;;;;;;;;;51.20;17.50;;;;;;6249293;22;19960;-80
2023/06/22 12:14:05;;;;;;;;;;;51.30;17.30;;;;;;6250194;22;19955;-81
2023/06/22 12:16:53;;;;;;;;;;;51.80;17.40;;;;;;6249152;22;20325;-82
2023/06/22 12:19:18;;;;;;;;;;;51.90;16.60;;;;;;6249974;22;19938;-81
2023/06/22 12:21:45;;;;;;;;;;;52.00;16.50;;;;;;6249361;22;19915;-81
2023/06/22 12:24:11;;;;;;;;;;;52.20;15.90;;;;;;6250023;22;19907;-81
2023/06/22 12:26:37;;;;;;;;;;;52.50;16.70;;;;;;6223671;22;20352;-80
2023/06/22 12:29:03;;;;;;;;;;;52.30;16.90;;;;;;6249850;22;20294;-81
2023/06/22 12:31:29;;;;;;;;;;;52.40;16.60;;;;;;6249168;22;19946;-82
2023/06/22 12:33:55;;;;;;;;;;;52.40;16.60;;;;;;6224098;22;19908;-81
2023/06/22 12:36:21;;;;;;;;;;;51.80;16.00;;;;;;6276314;22;19915;-80
2023/06/22 12:38:47;;;;;;;;;;;51.60;16.40;;;;;;6249641;22;19907;-81
2023/06/22 12:41:13;;;;;;;;;;;51.50;16.70;;;;;;6248860;22;19923;-80
2023/06/22 12:43:39;;;;;;;;;;;51.40;16.70;;;;;;6249631;22;20288;-82
2023/06/22 12:46:05;;;;;;;;;;;51.10;17.40;;;;;;6223425;22;19997;-84
2023/06/22 12:48:30;;;;;;;;;;;51.20;17.90;;;;;;6224520;22;19969;-81
2023/06/22 12:50:56;;;;;;;;;;;51.10;18.20;;;;;;6249096;22;20502;-83
2023/06/22 12:53:23;;;;;;;;;;;50.90;17.80;;;;;;6277019;22;19989;-83
2023/06/22 12:55:49;;;;;;;;;;;50.50;17.40;;;;;;6223988;22;19956;-81
2023/06/22 12:58:15;;;;;;;;;;;49.80;17.10;;;;;;6249339;22;19915;-84
2023/06/22 13:00:41;;;;;;;;;;;49.20;18.50;;;;;;6249169;22;20322;-81
2023/06/22 13:03:07;;;;;;;;;;;48.50;18.70;;;;;;6224110;22;19950;-80
2023/06/22 13:05:34;;;;;;;;;;;47.50;19.30;;;;;;6249297;22;19990;-86
2023/06/22 13:08:00;;;;;;;;;;;47.00;20.90;;;;;;6249500;22;19915;-83
2023/06/22 13:10:26;;;;;;;;;;;46.40;21.10;;;;;;6249064;22;20160;-83
2023/06/22 13:13:11;;;;;;;;;;;45.80;21.60;;;;;;6249634;22;19911;-82
2023/06/22 13:15:37;;;;;;;;;;;45.40;22.00;;;;;;6223767;22;19911;-83
2023/06/22 13:18:02;;;;;;;;;;;45.40;22.60;;;;;;6276431;22;20001;-83
2023/06/22 13:20:29;;;;;;;;;;;45.10;23.00;;;;;;6249081;22;19915;-85
2023/06/22 13:22:56;;;;;;;;;;;44.90;22.50;;;;;;6249557;22;19912;-85
2023/06/22 13:25:26;;;;;;;;;;;44.60;22.90;;;;;;6224143;22;20808;-84
2023/06/22 13:27:52;;;;;;;;;;;44.50;23.30;;;;;;6225098;22;19918;-80
2023/06/22 13:30:18;;;;;;;;;;;44.30;23.70;;;;;;6249154;22;19911;-82
2023/06/22 13:32:43;;;;;;;;;;;44.00;23.80;;;;;;6276465;22;19918;-83
2023/06/22 13:35:13;;;;;;;;;;;43.70;23.50;;;;;;6223644;22;19957;-81
2023/06/22 13:37:39;;;;;;;;;;;43.60;24.10;;;;;;6249493;22;20070;-82
2023/06/22 13:40:06;;;;;;;;;;;43.50;24.60;;;;;;6249281;22;19994;-83
2023/06/22 13:42:33;;;;;;;;;;;43.40;25.10;;;;;;6249388;22;19919;-81
2023/06/22 13:44:59;;;;;;;;;;;43.30;25.20;;;;;;6249563;22;19939;-80
2023/06/22 13:47:24;;;;;;;;;;;43.10;25.60;;;;;;6233013;23;19950;-81
2023/06/22 13:49:50;;;;;;;;;;;43.00;26.00;;;;;;6246269;23;19915;-83
2023/06/22 13:52:16;;;;;;;;;;;42.90;25.90;;;;;;6245804;23;20041;-81
2023/06/22 13:54:42;;;;;;;;;;;42.90;26.00;;;;;;6221024;23;20321;-81
2023/06/22 13:57:08;;;;;;;;;;;42.70;26.10;;;;;;6220414;23;19925;-80
2023/06/22 13:59:34;;;;;;;;;;;42.60;26.30;;;;;;6247761;22;19919;-85
2023/06/22 14:02:00;;;;;;;;;;;42.60;26.70;;;;;;6245838;23;20154;-85
2023/06/22 14:04:26;;;;;;;;;;;42.60;26.70;;;;;;6220599;23;19986;-82
2023/06/22 14:06:52;;;;;;;;;;;42.50;26.00;;;;;;6220221;23;20380;-81
2023/06/22 14:09:18;;;;;;;;;;;42.30;26.30;;;;;;6220929;23;19986;-82
2023/06/22 14:11:44;;;;;;;;;;;42.10;26.70;;;;;;6245957;23;19994;-85
2023/06/22 14:14:10;;;;;;;;;;;42.10;27.30;;;;;;6195670;23;19915;-82
2023/06/22 14:16:35;;;;;;;;;;;42.10;27.40;;;;;;6220023;23;20245;-84
2023/06/22 14:19:01;;;;;;;;;;;42.20;27.50;;;;;;6245652;23;20360;-85
2023/06/22 14:21:27;;;;;;;;;;;42.10;27.90;;;;;;6220422;23;19951;-85
2023/06/22 14:23:53;;;;;;;;;;;42.00;27.60;;;;;;6220840;23;20025;-83
2023/06/22 14:26:19;;;;;;;;;;;41.90;27.30;;;;;;6245680;23;19912;-82